createdAt,value
2024-01-24T00:01:36.902Z,8.24
2024-01-24T00:04:04.952Z,8.28
2024-01-24T00:06:32.537Z,8.30
2024-01-24T00:09:00.057Z,8.32
2024-01-24T00:11:27.566Z,8.35
2024-01-24T00:13:56.487Z,8.37
2024-01-24T00:16:24.108Z,8.40
2024-01-24T00:18:51.782Z,8.41
2024-01-24T00:21:19.354Z,8.43
2024-01-24T00:23:46.883Z,8.45
2024-01-24T00:26:14.366Z,8.49
2024-01-24T00:28:41.910Z,8.52
2024-01-24T00:31:10.752Z,8.57
2024-01-24T00:33:38.340Z,8.61
2024-01-24T00:36:06.257Z,8.64
2024-01-24T00:38:33.764Z,8.68
2024-01-24T00:41:01.257Z,8.70
2024-01-24T00:43:28.786Z,8.74
2024-01-24T00:45:57.187Z,8.75
2024-01-24T00:48:26.296Z,8.78
2024-01-24T00:50:54.415Z,8.80
2024-01-24T00:53:22.756Z,8.84
2024-01-24T00:55:50.524Z,8.89
2024-01-24T00:58:18.037Z,8.93
2024-01-24T01:00:45.578Z,8.96
2024-01-24T01:03:13.479Z,8.99
2024-01-24T01:05:42.391Z,9.02
2024-01-24T01:08:10.052Z,9.02
2024-01-24T01:10:37.568Z,9.03
2024-01-24T01:13:05.433Z,9.07
2024-01-24T01:15:33.014Z,9.09
2024-01-24T01:18:00.620Z,9.14
2024-01-24T01:20:28.138Z,9.17
2024-01-24T01:22:56.965Z,9.20
2024-01-24T01:25:24.484Z,9.24
2024-01-24T01:27:52.236Z,9.26
2024-01-24T01:30:19.935Z,9.28
2024-01-24T01:32:47.561Z,9.30
2024-01-24T01:35:15.494Z,9.31
2024-01-24T01:37:42.996Z,9.35
2024-01-24T01:40:12.569Z,9.38
2024-01-24T01:42:44.713Z,9.41
2024-01-24T01:45:12.238Z,9.42
2024-01-24T01:47:40.193Z,9.43
2024-01-24T01:50:11.323Z,9.44
2024-01-24T01:52:39.665Z,9.46
2024-01-24T01:55:09.215Z,9.48
2024-01-24T01:57:40.978Z,9.51
2024-01-24T02:00:11.086Z,9.52
2024-01-24T02:02:38.967Z,9.53
2024-01-24T02:05:07.846Z,9.52
2024-01-24T02:07:35.476Z,9.52
2024-01-24T02:10:03.408Z,9.52
2024-01-24T02:12:30.957Z,9.53
2024-01-24T02:14:59.876Z,9.54
2024-01-24T02:17:27.418Z,9.55
2024-01-24T02:19:55.029Z,9.56
2024-01-24T02:22:22.813Z,9.57
2024-01-24T02:24:51.695Z,9.59
2024-01-24T02:27:19.302Z,9.61
2024-01-24T02:29:46.836Z,9.63
2024-01-24T02:32:14.369Z,9.62
2024-01-24T02:34:42.008Z,9.63
2024-01-24T02:37:09.665Z,9.64
2024-01-24T02:39:37.234Z,9.64
2024-01-24T02:42:06.720Z,9.65
2024-01-24T02:44:34.472Z,9.65
2024-01-24T02:47:02.012Z,9.63
2024-01-24T02:49:29.636Z,9.65
2024-01-24T02:52:02.546Z,9.65
2024-01-24T02:54:30.164Z,9.67
2024-01-24T02:56:57.701Z,9.66
2024-01-24T02:59:27.142Z,9.65
2024-01-24T03:01:54.865Z,9.63
2024-01-24T03:04:22.685Z,9.62
2024-01-24T03:06:50.378Z,9.62
2024-01-24T03:09:18.104Z,9.61
2024-01-24T03:11:45.625Z,9.62
2024-01-24T03:14:13.091Z,9.62
2024-01-24T03:16:41.948Z,9.62
2024-01-24T03:19:09.557Z,9.61
2024-01-24T03:21:37.192Z,9.62
2024-01-24T03:24:05.012Z,9.61
2024-01-24T03:26:32.572Z,9.62
2024-01-24T03:29:00.146Z,9.63
2024-01-24T03:31:27.686Z,9.64
2024-01-24T03:33:56.634Z,9.64
2024-01-24T03:36:24.312Z,9.65
2024-01-24T03:38:51.833Z,9.65
2024-01-24T03:41:19.410Z,9.66
2024-01-24T03:43:46.971Z,9.68
2024-01-24T03:46:14.501Z,9.67
2024-01-24T03:48:42.071Z,9.68
2024-01-24T03:51:12.369Z,9.66
2024-01-24T03:53:39.919Z,9.67
2024-01-24T03:56:08.128Z,9.69
2024-01-24T03:58:37.462Z,9.68
2024-01-24T04:01:05.317Z,9.69
2024-01-24T04:03:33.061Z,9.68
2024-01-24T04:06:00.979Z,9.65
2024-01-24T04:08:29.915Z,9.64
2024-01-24T04:10:57.400Z,9.65
2024-01-24T04:13:26.579Z,9.64
2024-01-24T04:15:54.125Z,9.63
2024-01-24T04:18:21.719Z,9.64
2024-01-24T04:20:49.362Z,9.64
2024-01-24T04:23:16.894Z,9.64
2024-01-24T04:25:45.729Z,9.65
2024-01-24T04:28:13.443Z,9.66
2024-01-24T04:30:41.086Z,9.69
2024-01-24T04:33:08.744Z,9.70
2024-01-24T04:35:36.353Z,9.72
2024-01-24T04:38:04.725Z,9.74
2024-01-24T04:40:32.269Z,9.78
2024-01-24T04:43:01.242Z,9.81
2024-01-24T04:45:28.808Z,9.82
2024-01-24T04:47:56.890Z,9.83
2024-01-24T04:50:25.089Z,9.83
2024-01-24T04:52:52.892Z,9.85
2024-01-24T04:55:20.416Z,9.88
2024-01-24T04:57:47.926Z,9.89
2024-01-24T05:00:17.575Z,9.93
2024-01-24T05:02:45.433Z,9.95
2024-01-24T05:05:13.001Z,9.97
2024-01-24T05:07:40.976Z,9.99
2024-01-24T05:10:09.929Z,10.02
2024-01-24T05:12:37.572Z,10.04
2024-01-24T05:15:05.914Z,10.08
2024-01-24T05:17:34.813Z,10.10
2024-01-24T05:20:02.938Z,10.14
2024-01-24T05:22:30.478Z,10.16
2024-01-24T05:24:58.097Z,10.16
2024-01-24T05:27:25.941Z,10.17
2024-01-24T05:29:53.452Z,10.19
2024-01-24T05:32:20.945Z,10.16
2024-01-24T05:34:50.628Z,10.18
2024-01-24T05:37:18.239Z,10.17
2024-01-24T05:39:45.788Z,10.19
2024-01-24T05:42:13.564Z,10.22
2024-01-24T05:44:41.238Z,10.25
2024-01-24T05:47:08.738Z,10.27
2024-01-24T05:49:37.531Z,10.28
2024-01-24T05:52:07.384Z,10.27
2024-01-24T05:54:35.177Z,10.28
2024-01-24T05:57:02.650Z,10.31
2024-01-24T05:59:30.757Z,10.31
2024-01-24T06:01:58.357Z,10.34
2024-01-24T06:04:26.169Z,10.35
2024-01-24T06:06:56.135Z,10.36
2024-01-24T06:09:25.239Z,10.37
2024-01-24T06:11:53.227Z,10.38
2024-01-24T06:14:22.663Z,10.41
2024-01-24T06:16:50.183Z,10.42
2024-01-24T06:19:18.161Z,10.45
2024-01-24T06:21:55.958Z,10.46
2024-01-24T06:24:25.813Z,10.49
2024-01-24T06:26:54.301Z,10.48
2024-01-24T06:30:14.878Z,10.53
2024-01-24T06:32:09.337Z,10.54
2024-01-24T06:34:36.918Z,10.55
2024-01-24T06:37:04.552Z,10.57
2024-01-24T06:39:33.465Z,10.59
2024-01-24T06:42:01.021Z,10.61
2024-01-24T06:44:28.540Z,10.66
2024-01-24T06:46:56.571Z,10.68
2024-01-24T06:49:24.246Z,10.71
2024-01-24T06:51:52.668Z,10.72
2024-01-24T06:54:20.313Z,10.74
2024-01-24T06:56:49.464Z,10.76
2024-01-24T06:59:17.129Z,10.76
2024-01-24T07:01:44.941Z,10.79
2024-01-24T07:04:12.720Z,10.82
2024-01-24T07:06:40.919Z,10.83
2024-01-24T07:09:08.492Z,10.86
2024-01-24T07:11:36.005Z,10.89
2024-01-24T07:14:05.348Z,10.89
2024-01-24T07:16:32.842Z,10.89
2024-01-24T07:19:00.557Z,10.90
2024-01-24T07:21:28.124Z,10.88
2024-01-24T07:23:55.641Z,10.89
2024-01-24T07:26:23.147Z,10.89
2024-01-24T07:28:50.700Z,10.90
2024-01-24T07:31:20.545Z,10.89
2024-01-24T07:33:49.317Z,10.89
2024-01-24T07:36:16.954Z,10.90
2024-01-24T07:38:44.611Z,10.93
2024-01-24T07:41:12.119Z,10.95
2024-01-24T07:43:39.641Z,10.97
2024-01-24T07:46:07.496Z,10.99
2024-01-24T07:48:36.722Z,11.03
2024-01-24T07:51:05.533Z,11.05
2024-01-24T07:53:33.419Z,11.07
2024-01-24T07:56:10.984Z,11.10
2024-01-24T07:58:48.929Z,11.14
2024-01-24T08:01:18.535Z,11.17
2024-01-24T08:03:49.678Z,11.20
2024-01-24T08:06:18.826Z,11.25
2024-01-24T08:08:46.743Z,11.28
2024-01-24T08:11:14.420Z,11.31
2024-01-24T08:13:42.279Z,11.35
2024-01-24T08:16:10.493Z,11.37
2024-01-24T08:18:38.235Z,11.39
2024-01-24T08:21:09.044Z,11.42
2024-01-24T08:23:43.094Z,11.45
2024-01-24T08:26:17.903Z,11.48
2024-01-24T08:28:45.396Z,11.50
2024-01-24T08:31:14.421Z,11.51
2024-01-24T08:33:42.300Z,11.55
2024-01-24T08:36:11.342Z,11.59
2024-01-24T08:38:38.868Z,11.59
2024-01-24T08:41:06.478Z,11.58
2024-01-24T08:43:34.028Z,11.60
2024-01-24T08:46:01.584Z,11.62
2024-01-24T08:48:30.299Z,11.65
2024-01-24T08:50:57.980Z,11.67
2024-01-24T08:53:26.898Z,11.70
2024-01-24T08:55:54.412Z,11.70
2024-01-24T08:58:22.004Z,11.70
2024-01-24T09:00:49.725Z,11.72
2024-01-24T09:03:19.976Z,11.73
2024-01-24T09:05:47.827Z,11.73
2024-01-24T09:08:15.425Z,11.74
2024-01-24T09:10:44.597Z,11.74
2024-01-24T09:13:12.198Z,11.74
2024-01-24T09:15:39.979Z,11.75
2024-01-24T09:18:08.720Z,11.79
2024-01-24T09:20:36.535Z,11.80
2024-01-24T09:23:04.212Z,11.81
2024-01-24T09:25:31.845Z,11.84
2024-01-24T09:28:00.800Z,11.84
2024-01-24T09:30:28.580Z,11.86
2024-01-24T09:32:56.546Z,11.87
2024-01-24T09:35:24.305Z,11.86
2024-01-24T09:37:51.827Z,11.87
2024-01-24T09:40:19.660Z,11.89
2024-01-24T09:42:47.693Z,11.89
2024-01-24T09:45:19.056Z,11.89
2024-01-24T09:47:48.419Z,11.87
2024-01-24T09:50:16.697Z,11.88
2024-01-24T09:52:47.178Z,11.88
2024-01-24T09:55:19.871Z,11.88
2024-01-24T09:57:47.697Z,11.86
2024-01-24T10:00:17.821Z,11.84
2024-01-24T10:02:47.682Z,11.83
2024-01-24T10:05:18.475Z,11.84
2024-01-24T10:07:46.870Z,11.84
2024-01-24T10:10:16.398Z,11.85
2024-01-24T10:12:45.031Z,11.85
2024-01-24T10:15:13.505Z,11.86
2024-01-24T10:17:43.718Z,11.89
2024-01-24T10:20:13.753Z,11.91
2024-01-24T10:22:43.239Z,11.93
2024-01-24T10:25:12.253Z,11.94
2024-01-24T10:27:40.260Z,11.96
2024-01-24T10:30:12.469Z,11.97
2024-01-24T10:32:40.687Z,11.99
2024-01-24T10:35:11.202Z,12.00
2024-01-24T10:37:39.197Z,12.02
2024-01-24T10:40:12.750Z,12.05
2024-01-24T10:42:42.870Z,12.04
2024-01-24T10:45:11.983Z,12.07
2024-01-24T10:47:41.532Z,12.08
2024-01-24T10:50:12.159Z,12.07
2024-01-24T10:52:41.637Z,12.04
2024-01-24T10:55:12.801Z,12.02
2024-01-24T10:57:42.192Z,11.99
2024-01-24T11:00:12.043Z,11.99
2024-01-24T11:02:42.282Z,12.00
2024-01-24T11:05:19.521Z,12.02
2024-01-24T11:07:55.087Z,12.04
2024-01-24T11:10:26.667Z,12.08
2024-01-24T11:12:54.715Z,12.21
2024-01-24T11:15:23.679Z,12.30
2024-01-24T11:18:26.419Z,12.40
2024-01-24T11:20:57.424Z,12.46
2024-01-24T11:23:41.794Z,12.50
2024-01-24T11:26:11.310Z,12.51
2024-01-24T11:28:39.366Z,12.51
2024-01-24T11:31:08.283Z,12.53
2024-01-24T11:33:36.300Z,12.51
2024-01-24T11:36:13.955Z,12.52
2024-01-24T11:38:41.507Z,12.56
2024-01-24T11:41:24.908Z,12.60
2024-01-24T11:43:52.512Z,12.65
2024-01-24T11:46:22.507Z,12.67
2024-01-24T11:48:50.503Z,12.67
2024-01-24T11:51:19.837Z,12.66
2024-01-24T11:53:47.513Z,12.65
2024-01-24T11:56:16.482Z,12.60
2024-01-24T11:58:44.358Z,12.55
2024-01-24T12:01:13.716Z,12.46
2024-01-24T12:03:48.020Z,12.32
2024-01-24T12:06:15.739Z,12.23
2024-01-24T12:08:48.196Z,12.13
2024-01-24T12:11:18.452Z,12.06
2024-01-24T12:13:47.100Z,12.01
2024-01-24T12:16:14.741Z,11.98
2024-01-24T12:18:43.550Z,11.91
2024-01-24T12:21:12.530Z,11.87
2024-01-24T12:23:39.554Z,11.83
2024-01-24T12:26:09.109Z,11.81
2024-01-24T12:28:36.897Z,11.81
2024-01-24T12:31:06.304Z,11.78
2024-01-24T12:33:36.618Z,11.79
2024-01-24T12:36:05.799Z,11.78
2024-01-24T12:38:35.852Z,11.77
2024-01-24T12:41:03.632Z,11.77
2024-01-24T12:43:33.269Z,11.74
2024-01-24T12:46:06.615Z,11.76
2024-01-24T12:48:34.501Z,11.80
2024-01-24T12:51:02.297Z,11.79
2024-01-24T12:53:30.138Z,11.80
2024-01-24T12:55:57.777Z,11.78
2024-01-24T12:58:25.408Z,11.79
2024-01-24T13:00:55.581Z,11.80
2024-01-24T13:03:24.295Z,11.75
2024-01-24T13:05:52.882Z,11.75
2024-01-24T13:08:21.767Z,11.73
2024-01-24T13:10:50.124Z,11.75
2024-01-24T13:13:18.175Z,11.75
2024-01-24T13:15:46.086Z,11.78
2024-01-24T13:18:15.135Z,11.79
2024-01-24T13:20:42.820Z,11.79
2024-01-24T13:23:10.360Z,11.80
2024-01-24T13:25:37.975Z,11.80
2024-01-24T13:28:06.737Z,11.84
2024-01-24T13:30:35.561Z,11.89
2024-01-24T13:33:03.291Z,11.93
2024-01-24T13:35:32.626Z,11.94
2024-01-24T13:38:00.659Z,11.95
2024-01-24T13:40:28.234Z,11.98
2024-01-24T13:42:55.866Z,11.99
2024-01-24T13:45:24.928Z,11.98
2024-01-24T13:47:52.512Z,11.98
2024-01-24T13:50:20.193Z,11.97
2024-01-24T13:52:49.112Z,11.96
2024-01-24T13:55:16.727Z,11.94
2024-01-24T13:57:45.185Z,11.92
2024-01-24T14:00:15.286Z,11.90
2024-01-24T14:02:44.186Z,11.89
2024-01-24T14:05:12.124Z,11.88
2024-01-24T14:07:43.638Z,11.85
2024-01-24T14:10:13.963Z,11.85
2024-01-24T14:12:41.829Z,11.84
2024-01-24T14:15:19.651Z,11.84
2024-01-24T14:17:55.885Z,11.88
2024-01-24T14:20:23.637Z,11.93
2024-01-24T14:22:51.276Z,11.98
2024-01-24T14:25:20.941Z,12.03
2024-01-24T14:27:48.524Z,12.08
2024-01-24T14:30:16.328Z,12.12
2024-01-24T14:32:43.921Z,12.17
2024-01-24T14:35:16.224Z,12.19
2024-01-24T14:37:43.978Z,12.19
2024-01-24T14:40:12.657Z,12.18
2024-01-24T14:42:41.701Z,12.18
2024-01-24T14:45:10.363Z,12.15
2024-01-24T14:47:38.104Z,12.10
2024-01-24T14:50:06.777Z,12.07
2024-01-24T14:52:34.513Z,12.07
2024-01-24T14:55:03.576Z,12.04
2024-01-24T14:57:33.084Z,11.99
2024-01-24T15:00:05.797Z,11.92
2024-01-24T15:02:34.274Z,11.89
2024-01-24T15:05:03.190Z,11.80
2024-01-24T15:07:30.840Z,11.77
2024-01-24T15:09:58.461Z,11.73
2024-01-24T15:12:28.269Z,11.67
2024-01-24T15:14:55.932Z,11.65
2024-01-24T15:17:24.839Z,11.60
2024-01-24T15:19:52.571Z,11.56
2024-01-24T15:22:22.477Z,11.52
2024-01-24T15:24:50.993Z,11.47
2024-01-24T15:27:18.723Z,11.44
2024-01-24T15:29:46.570Z,11.36
2024-01-24T15:32:14.116Z,11.31
2024-01-24T15:34:43.353Z,11.27
2024-01-24T15:37:11.226Z,11.22
2024-01-24T15:39:39.519Z,11.17
2024-01-24T15:42:12.174Z,11.13
2024-01-24T15:44:39.659Z,11.11
2024-01-24T15:47:08.857Z,11.06
2024-01-24T15:49:36.524Z,11.05
2024-01-24T15:52:06.103Z,11.03
2024-01-24T15:54:33.771Z,11.03
2024-01-24T15:57:01.280Z,11.02
2024-01-24T15:59:28.952Z,11.02
2024-01-24T16:01:56.617Z,11.00
2024-01-24T16:04:24.479Z,10.95
2024-01-24T16:06:53.650Z,10.95
2024-01-24T16:09:22.714Z,10.93
2024-01-24T16:11:50.290Z,10.90
2024-01-24T16:14:19.017Z,10.90
2024-01-24T16:16:47.208Z,10.87
2024-01-24T16:19:14.855Z,10.84
2024-01-24T16:21:44.571Z,10.81
2024-01-24T16:24:12.141Z,10.82
2024-01-24T16:26:40.978Z,10.85
2024-01-24T16:29:08.448Z,10.86
2024-01-24T16:31:35.918Z,10.86
2024-01-24T16:34:04.017Z,10.85
2024-01-24T16:36:31.852Z,10.81
2024-01-24T16:38:59.420Z,10.80
2024-01-24T16:41:27.043Z,10.80
2024-01-24T16:43:56.029Z,10.82
2024-01-24T16:46:23.634Z,10.84
2024-01-24T16:48:51.516Z,10.86
2024-01-24T16:51:19.350Z,10.88
2024-01-24T16:53:46.920Z,10.89
2024-01-24T16:56:14.524Z,10.89
2024-01-24T16:58:42.577Z,10.89
2024-01-24T17:01:11.636Z,10.89
2024-01-24T17:03:39.543Z,10.87
2024-01-24T17:06:09.053Z,10.88
2024-01-24T17:08:37.595Z,10.88
2024-01-24T17:11:05.611Z,10.87
2024-01-24T17:13:33.195Z,10.85
2024-01-24T17:16:02.844Z,10.85
2024-01-24T17:18:31.984Z,10.86
2024-01-24T17:20:59.598Z,10.84
2024-01-24T17:23:27.129Z,10.83
2024-01-24T17:25:54.750Z,10.79
2024-01-24T17:28:22.323Z,10.76
2024-01-24T17:30:49.930Z,10.74
2024-01-24T17:33:18.893Z,10.68
2024-01-24T17:35:47.913Z,10.63
2024-01-24T17:38:15.617Z,10.59
2024-01-24T17:40:43.139Z,10.57
2024-01-24T17:43:11.306Z,10.51
2024-01-24T17:45:38.998Z,10.50
2024-01-24T17:48:07.893Z,10.48
2024-01-24T17:50:37.218Z,10.45
2024-01-24T17:53:06.610Z,10.42
2024-01-24T17:55:34.409Z,10.39
2024-01-24T17:58:02.155Z,10.38
2024-01-24T18:00:29.829Z,10.38
2024-01-24T18:02:57.729Z,10.38
2024-01-24T18:05:25.440Z,10.37
2024-01-24T18:07:53.187Z,10.36
2024-01-24T18:10:22.492Z,10.33
2024-01-24T18:12:50.088Z,10.31
2024-01-24T18:15:18.193Z,10.29
2024-01-24T18:17:45.834Z,10.27
2024-01-24T18:20:13.668Z,10.25
2024-01-24T18:22:42.953Z,10.23
2024-01-24T18:25:10.536Z,10.24
2024-01-24T18:27:39.522Z,10.22
2024-01-24T18:30:13.784Z,10.21
2024-01-24T18:32:41.806Z,10.19
2024-01-24T18:35:10.908Z,10.16
2024-01-24T18:37:39.248Z,10.14
2024-01-24T18:40:10.752Z,10.13
2024-01-24T18:42:41.571Z,10.13
2024-01-24T18:45:13.023Z,10.12
2024-01-24T18:47:41.669Z,10.10
2024-01-24T18:50:11.036Z,10.06
2024-01-24T18:52:39.581Z,10.03
2024-01-24T18:55:11.647Z,10.00
2024-01-24T18:57:40.884Z,9.98
2024-01-24T19:00:10.102Z,9.96
2024-01-24T19:02:38.860Z,9.94
2024-01-24T19:05:10.195Z,9.90
2024-01-24T19:07:42.297Z,9.87
2024-01-24T19:10:11.519Z,9.84
2024-01-24T19:12:43.096Z,9.83
2024-01-24T19:15:18.979Z,9.82
2024-01-24T19:17:49.716Z,9.79
2024-01-24T19:20:19.072Z,9.75
2024-01-24T19:22:46.956Z,9.72
2024-01-24T19:25:14.598Z,9.67
2024-01-24T19:27:43.988Z,9.65
2024-01-24T19:30:12.738Z,9.62
2024-01-24T19:32:41.647Z,9.59
2024-01-24T19:35:10.651Z,9.58
2024-01-24T19:37:42.791Z,9.55
2024-01-24T19:40:21.029Z,9.55
2024-01-24T19:42:49.996Z,9.53
2024-01-24T19:45:17.820Z,9.51
2024-01-24T19:47:46.334Z,9.47
2024-01-24T19:50:13.936Z,9.43
2024-01-24T19:52:41.457Z,9.40
2024-01-24T19:55:10.261Z,9.39
2024-01-24T19:57:37.969Z,9.39
2024-01-24T20:00:12.502Z,9.36
2024-01-24T20:02:40.577Z,9.34
2024-01-24T20:07:46.668Z,9.27
2024-01-24T20:10:16.798Z,9.26
2024-01-24T21:44:54.890Z,8.83
2024-01-24T21:47:22.408Z,8.82
2024-01-24T21:49:50.289Z,8.82
2024-01-24T21:52:18.691Z,8.80
2024-01-24T21:54:50.684Z,8.77
2024-01-24T21:57:18.841Z,8.77
2024-01-24T21:59:46.678Z,8.75
2024-01-24T22:02:15.823Z,8.73
2024-01-24T22:04:44.140Z,8.72
2024-01-24T22:07:12.339Z,8.70
2024-01-24T22:09:40.085Z,8.70
2024-01-24T22:12:10.071Z,8.69
2024-01-24T22:14:37.664Z,8.68
2024-01-24T22:17:05.583Z,8.66
2024-01-24T22:19:34.586Z,8.66
2024-01-24T22:22:02.387Z,8.68
2024-01-24T22:24:30.100Z,8.69
2024-01-24T22:26:57.834Z,8.71
2024-01-24T22:29:25.457Z,8.72
2024-01-24T22:31:53.067Z,8.73
2024-01-24T22:34:20.804Z,8.72
2024-01-24T22:36:49.920Z,8.71
2024-01-24T22:39:17.480Z,8.72
2024-01-24T22:41:45.037Z,8.73
2024-01-24T22:44:12.805Z,8.76
2024-01-24T22:46:41.262Z,8.77
2024-01-24T22:49:09.237Z,8.80
2024-01-24T22:51:36.995Z,8.81
2024-01-24T22:54:07.132Z,8.81
2024-01-24T22:56:34.686Z,8.84
2024-01-24T22:59:02.205Z,8.87
2024-01-24T23:01:29.876Z,8.89
2024-01-24T23:03:58.044Z,8.90
2024-01-24T23:06:25.768Z,8.91
2024-01-24T23:08:53.353Z,8.93
2024-01-24T23:11:22.460Z,8.94
2024-01-24T23:13:50.062Z,8.98
2024-01-24T23:16:17.828Z,9.00
2024-01-24T23:18:45.586Z,9.00
2024-01-24T23:21:13.218Z,9.02
2024-01-24T23:23:41.329Z,9.02
2024-01-24T23:26:08.855Z,9.03
2024-01-24T23:28:37.862Z,9.03
2024-01-24T23:31:05.918Z,9.02
2024-01-24T23:33:35.671Z,9.03
2024-01-24T23:36:05.029Z,9.03
2024-01-24T23:38:32.736Z,9.03
2024-01-24T23:41:00.438Z,9.04
2024-01-24T23:43:28.029Z,9.04
2024-01-24T23:45:57.137Z,9.02
2024-01-24T23:48:24.986Z,9.03
2024-01-24T23:50:52.934Z,9.02
2024-01-24T23:53:20.598Z,9.03
2024-01-24T23:55:48.747Z,9.02
2024-01-24T23:58:16.455Z,9.01
